createdAt,value
2022-12-18T00:01:34.277Z,-10.80
2022-12-18T00:04:07.483Z,-10.80
2022-12-18T00:06:36.419Z,-10.80
2022-12-18T00:09:04.833Z,-10.80
2022-12-18T00:11:32.939Z,-10.80
2022-12-18T00:14:00.949Z,-10.90
2022-12-18T00:16:29.480Z,-10.90
2022-12-18T00:19:01.125Z,-10.90
2022-12-18T00:21:30.347Z,-10.90
2022-12-18T00:23:58.679Z,-10.90
2022-12-18T00:26:29.243Z,-11.00
2022-12-18T00:29:12.680Z,-11.00
2022-12-18T00:31:40.413Z,-11.10
2022-12-18T00:34:10.719Z,-11.10
2022-12-18T00:36:42.088Z,-11.10
2022-12-18T00:39:10.889Z,-11.10
2022-12-18T00:41:57.204Z,-11.10
2022-12-18T00:44:24.628Z,-11.10
2022-12-18T00:46:52.303Z,-11.10
2022-12-18T00:49:20.879Z,-11.10
2022-12-18T00:51:49.627Z,-11.10
2022-12-18T00:54:18.488Z,-11.10
2022-12-18T00:56:49.424Z,-11.10
2022-12-18T00:59:18.552Z,-11.20
2022-12-18T01:01:47.054Z,-11.20
2022-12-18T01:04:15.376Z,-11.20
2022-12-18T01:06:46.498Z,-11.20
2022-12-18T01:09:13.958Z,-11.20
2022-12-18T01:11:41.714Z,-11.20
2022-12-18T01:14:09.442Z,-11.10
2022-12-18T01:16:38.953Z,-11.10
2022-12-18T01:19:06.749Z,-11.00
2022-12-18T01:21:35.486Z,-11.10
2022-12-18T01:24:05.869Z,-11.10
2022-12-18T01:26:33.390Z,-11.10
2022-12-18T01:29:00.914Z,-11.10
2022-12-18T01:31:31.168Z,-11.10
2022-12-18T01:34:01.261Z,-11.10
2022-12-18T01:36:34.562Z,-11.10
2022-12-18T01:39:07.850Z,-11.10
2022-12-18T01:41:55.241Z,-11.10
2022-12-18T01:45:00.360Z,-11.10
2022-12-18T01:47:39.957Z,-11.00
2022-12-18T01:50:26.913Z,-11.00
2022-12-18T01:53:19.858Z,-10.90
2022-12-18T01:55:53.669Z,-10.90
2022-12-18T01:58:29.358Z,-10.90
2022-12-18T02:00:58.297Z,-10.90
2022-12-18T02:03:25.821Z,-10.90
2022-12-18T02:06:29.601Z,-10.90
2022-12-18T02:09:01.886Z,-10.80
2022-12-18T02:12:09.538Z,-10.80
2022-12-18T02:14:57.532Z,-10.70
2022-12-18T02:17:43.332Z,-10.70
2022-12-18T02:20:21.574Z,-10.70
2022-12-18T02:23:13.486Z,-10.70
2022-12-18T02:26:08.797Z,-10.60
2022-12-18T02:28:45.131Z,-10.60
2022-12-18T02:31:17.727Z,-10.60
2022-12-18T02:33:46.810Z,-10.60
2022-12-18T02:36:16.700Z,-10.60
2022-12-18T02:38:46.526Z,-10.60
2022-12-18T02:41:17.784Z,-10.50
2022-12-18T02:43:58.147Z,-10.50
2022-12-18T02:46:35.163Z,-10.50
2022-12-18T02:49:33.727Z,-10.50
2022-12-18T02:52:44.582Z,-10.50
2022-12-18T02:55:15.703Z,-10.40
2022-12-18T02:58:20.638Z,-10.40
2022-12-18T03:00:58.733Z,-10.40
2022-12-18T03:03:33.799Z,-10.30
2022-12-18T03:06:10.628Z,-10.30
2022-12-18T03:08:41.892Z,-10.30
2022-12-18T03:11:12.123Z,-10.30
2022-12-18T03:13:57.198Z,-10.30
2022-12-18T03:16:28.779Z,-10.40
2022-12-18T03:19:20.831Z,-10.40
2022-12-18T03:21:56.726Z,-10.40
2022-12-18T03:24:28.726Z,-10.40
2022-12-18T03:27:00.979Z,-10.40
2022-12-18T03:29:39.430Z,-10.30
2022-12-18T03:32:17.010Z,-10.30
2022-12-18T03:34:48.779Z,-10.30
2022-12-18T03:37:18.710Z,-10.30
2022-12-18T03:39:46.156Z,-10.30
2022-12-18T03:42:20.047Z,-10.20
2022-12-18T03:45:00.532Z,-10.20
2022-12-18T03:47:47.795Z,-10.20
2022-12-18T03:50:47.157Z,-10.20
2022-12-18T03:53:33.782Z,-10.20
2022-12-18T03:56:03.972Z,-10.20
2022-12-18T03:58:39.119Z,-10.20
2022-12-18T04:01:30.318Z,-10.20
2022-12-18T04:04:01.174Z,-10.20
2022-12-18T04:06:36.188Z,-10.30
2022-12-18T04:09:05.025Z,-10.20
2022-12-18T04:11:37.134Z,-10.20
2022-12-18T04:14:07.385Z,-10.30
2022-12-18T04:16:37.299Z,-10.30
2022-12-18T04:19:06.651Z,-10.20
2022-12-18T04:21:39.808Z,-10.20
2022-12-18T04:24:08.173Z,-10.20
2022-12-18T04:26:37.940Z,-10.20
2022-12-18T04:29:16.267Z,-10.20
2022-12-18T04:31:43.719Z,-10.20
2022-12-18T04:34:12.533Z,-10.20
2022-12-18T04:36:46.040Z,-10.20
2022-12-18T04:39:15.309Z,-10.20
2022-12-18T04:41:47.428Z,-10.20
2022-12-18T04:44:15.240Z,-10.20
2022-12-18T04:46:42.848Z,-10.20
2022-12-18T04:49:11.570Z,-10.20
2022-12-18T04:51:39.163Z,-10.20
2022-12-18T04:54:06.630Z,-10.10
2022-12-18T04:56:34.050Z,-10.00
2022-12-18T04:59:01.324Z,-9.90
2022-12-18T05:01:34.299Z,-9.90
2022-12-18T05:04:03.026Z,-9.80
2022-12-18T05:06:30.706Z,-9.80
2022-12-18T05:08:57.991Z,-9.70
2022-12-18T05:11:25.408Z,-9.60
2022-12-18T05:13:52.801Z,-9.60
2022-12-18T05:16:20.689Z,-9.50
2022-12-18T05:18:48.051Z,-9.50
2022-12-18T05:21:15.490Z,-9.50
2022-12-18T05:23:43.705Z,-9.40
2022-12-18T05:26:17.243Z,-9.40
2022-12-18T05:28:45.171Z,-9.40
2022-12-18T05:31:13.001Z,-9.40
2022-12-18T05:33:40.793Z,-9.40
2022-12-18T05:36:10.133Z,-9.40
2022-12-18T05:38:38.793Z,-9.30
2022-12-18T05:41:07.622Z,-9.40
2022-12-18T05:43:37.166Z,-9.30
2022-12-18T05:46:07.090Z,-9.30
2022-12-18T05:48:34.835Z,-9.10
2022-12-18T05:51:08.329Z,-9.30
2022-12-18T05:53:36.847Z,-9.30
2022-12-18T05:56:07.366Z,-9.30
2022-12-18T05:58:35.310Z,-9.30
2022-12-18T06:01:14.448Z,-9.30
2022-12-18T06:03:42.637Z,-9.30
2022-12-18T06:06:26.345Z,-9.30
2022-12-18T06:08:54.822Z,-9.30
2022-12-18T06:11:25.201Z,-9.30
2022-12-18T06:13:58.591Z,-9.20
2022-12-18T06:16:28.108Z,-9.30
2022-12-18T06:19:00.011Z,-9.30
2022-12-18T06:21:29.244Z,-9.20
2022-12-18T06:23:56.906Z,-9.20
2022-12-18T06:26:28.368Z,-9.20
2022-12-18T06:28:56.644Z,-9.10
2022-12-18T06:31:25.239Z,-9.10
2022-12-18T06:33:54.247Z,-9.00
2022-12-18T06:36:22.339Z,-8.90
2022-12-18T06:38:50.172Z,-8.90
2022-12-18T06:41:20.350Z,-8.80
2022-12-18T06:43:48.103Z,-8.70
2022-12-18T06:46:15.947Z,-8.70
2022-12-18T06:48:43.445Z,-8.70
2022-12-18T06:51:11.241Z,-8.60
2022-12-18T06:53:39.027Z,-8.60
2022-12-18T06:56:10.752Z,-8.60
2022-12-18T06:58:41.478Z,-8.60
2022-12-18T07:01:11.481Z,-8.60
2022-12-18T07:03:41.145Z,-8.50
2022-12-18T07:06:19.556Z,-8.50
2022-12-18T07:08:50.419Z,-8.40
2022-12-18T07:11:19.161Z,-8.40
2022-12-18T07:13:47.659Z,-8.30
2022-12-18T07:16:24.360Z,-8.30
2022-12-18T07:18:53.257Z,-8.20
2022-12-18T07:21:21.483Z,-8.10
2022-12-18T07:23:49.507Z,-8.10
2022-12-18T07:26:19.775Z,-8.00
2022-12-18T07:28:48.016Z,-8.00
2022-12-18T07:31:18.534Z,-7.90
2022-12-18T07:33:46.980Z,-7.90
2022-12-18T07:36:14.946Z,-7.80
2022-12-18T07:38:42.518Z,-7.80
2022-12-18T07:41:12.939Z,-7.70
2022-12-18T07:43:42.047Z,-7.70
2022-12-18T07:46:13.163Z,-7.60
2022-12-18T07:48:42.069Z,-7.50
2022-12-18T07:51:13.560Z,-7.50
2022-12-18T07:53:41.806Z,-7.40
2022-12-18T07:56:29.139Z,-7.30
2022-12-18T07:58:58.813Z,-7.20
2022-12-18T08:01:26.816Z,-7.10
2022-12-18T08:03:54.636Z,-7.00
2022-12-18T08:06:24.136Z,-6.90
2022-12-18T08:08:56.522Z,-6.90
2022-12-18T08:11:29.609Z,-6.80
2022-12-18T08:13:58.643Z,-6.70
2022-12-18T08:16:26.144Z,-6.70
2022-12-18T08:18:54.943Z,-6.60
2022-12-18T08:21:25.738Z,-6.50
2022-12-18T08:23:54.939Z,-6.40
2022-12-18T08:26:23.259Z,-6.40
2022-12-18T08:28:51.793Z,-6.30
2022-12-18T08:31:20.237Z,-6.30
2022-12-18T08:33:53.437Z,-6.20
2022-12-18T08:36:22.396Z,-6.20
2022-12-18T08:38:49.896Z,-6.10
2022-12-18T08:41:19.166Z,-6.10
2022-12-18T08:44:05.399Z,-6.00
2022-12-18T08:46:41.568Z,-6.00
2022-12-18T08:49:10.823Z,-5.90
2022-12-18T08:51:39.193Z,-5.90
2022-12-18T08:54:07.696Z,-5.80
2022-12-18T08:56:35.719Z,-5.50
2022-12-18T08:59:03.263Z,-5.70
2022-12-18T09:01:30.905Z,-5.60
2022-12-18T09:03:59.220Z,-5.60
2022-12-18T09:06:27.443Z,-5.50
2022-12-18T09:08:54.916Z,-5.40
2022-12-18T09:11:25.618Z,-5.40
2022-12-18T09:13:55.031Z,-5.30
2022-12-18T09:16:27.343Z,-5.30
2022-12-18T09:19:00.541Z,-5.20
2022-12-18T09:21:35.796Z,-5.10
2022-12-18T09:24:08.675Z,-5.10
2022-12-18T09:26:37.172Z,-5.00
2022-12-18T09:29:04.882Z,-5.00
2022-12-18T09:31:32.497Z,-4.90
2022-12-18T09:33:59.907Z,-4.80
2022-12-18T09:36:27.936Z,-4.80
2022-12-18T09:38:55.661Z,-4.70
2022-12-18T09:41:44.408Z,-4.70
2022-12-18T09:44:21.079Z,-4.60
2022-12-18T09:47:07.790Z,-4.50
2022-12-18T09:49:43.019Z,-4.50
2022-12-18T09:52:36.347Z,-4.40
2022-12-18T09:55:32.212Z,-4.30
2022-12-18T09:58:14.299Z,-4.20
2022-12-18T10:00:43.355Z,-4.10
2022-12-18T10:03:14.487Z,-4.00
2022-12-18T10:06:06.362Z,-4.00
2022-12-18T10:08:52.762Z,-3.90
2022-12-18T10:11:33.186Z,-3.80
2022-12-18T10:14:23.745Z,-3.80
2022-12-18T10:17:17.355Z,-3.70
2022-12-18T10:19:53.682Z,-3.60
2022-12-18T10:22:33.063Z,-3.60
2022-12-18T10:25:20.367Z,-3.60
2022-12-18T10:27:48.558Z,-3.50
2022-12-18T10:30:22.005Z,-3.50
2022-12-18T10:32:49.833Z,-3.40
2022-12-18T10:35:27.866Z,-3.40
2022-12-18T10:38:17.071Z,-3.30
2022-12-18T10:41:05.282Z,-3.30
2022-12-18T10:43:34.410Z,-3.20
2022-12-18T10:46:10.847Z,-3.10
2022-12-18T10:48:47.216Z,-3.10
2022-12-18T10:51:27.716Z,-3.00
2022-12-18T10:54:01.192Z,-3.00
2022-12-18T10:56:32.719Z,-3.00
2022-12-18T10:59:06.858Z,-2.90
2022-12-18T11:01:58.492Z,-2.90
2022-12-18T11:04:28.816Z,-2.90
2022-12-18T11:07:08.525Z,-2.80
2022-12-18T11:09:38.856Z,-2.80
2022-12-18T11:12:18.653Z,-2.80
2022-12-18T11:14:52.811Z,-2.80
2022-12-18T11:17:34.623Z,-2.80
2022-12-18T11:20:31.557Z,-2.70
2022-12-18T11:23:12.267Z,-2.70
2022-12-18T11:25:40.803Z,-2.60
2022-12-18T11:28:46.966Z,-2.60
2022-12-18T11:31:26.643Z,-2.60
2022-12-18T11:34:27.035Z,-2.50
2022-12-18T11:36:49.503Z,-2.40
2022-12-18T11:39:22.690Z,-2.40
2022-12-18T11:42:11.194Z,-2.40
2022-12-18T11:44:44.192Z,-2.30
2022-12-18T11:47:49.126Z,-2.30
2022-12-18T11:50:30.645Z,-2.20
2022-12-18T11:53:02.794Z,-2.20
2022-12-18T11:55:57.625Z,-2.20
2022-12-18T11:58:50.456Z,-2.10
2022-12-18T12:01:51.999Z,-2.10
2022-12-18T12:04:31.579Z,-2.00
2022-12-18T12:07:27.603Z,-2.00
2022-12-18T12:10:21.136Z,-2.00
2022-12-18T12:13:20.761Z,-1.90
2022-12-18T12:16:08.768Z,-1.90
2022-12-18T12:18:57.796Z,-1.90
2022-12-18T12:21:41.539Z,-1.90
2022-12-18T12:24:47.510Z,-1.90
2022-12-18T12:27:35.550Z,-1.90
2022-12-18T12:30:03.478Z,-1.90
2022-12-18T12:32:52.075Z,-1.90
2022-12-18T12:35:38.047Z,-1.90
2022-12-18T12:38:14.626Z,-1.90
2022-12-18T12:41:06.266Z,-1.80
2022-12-18T12:43:50.973Z,-1.80
2022-12-18T12:46:22.517Z,-1.80
2022-12-18T12:48:56.441Z,-1.80
2022-12-18T12:51:30.809Z,-1.80
2022-12-18T12:54:00.809Z,-1.80
2022-12-18T12:56:47.183Z,-1.80
2022-12-18T12:59:24.518Z,-1.80
2022-12-18T13:02:19.070Z,-1.80
2022-12-18T13:05:04.702Z,-1.80
2022-12-18T13:07:47.489Z,-1.70
2022-12-18T13:10:19.254Z,-1.70
2022-12-18T13:12:58.094Z,-1.70
2022-12-18T13:15:35.524Z,-1.70
2022-12-18T13:18:14.682Z,-1.70
2022-12-18T13:20:50.736Z,-1.50
2022-12-18T13:23:24.203Z,-1.60
2022-12-18T13:25:54.322Z,-1.50
2022-12-18T13:28:51.859Z,-1.50
2022-12-18T13:31:41.857Z,-1.50
2022-12-18T13:34:27.594Z,-1.50
2022-12-18T13:36:58.261Z,-1.50
2022-12-18T13:39:35.351Z,-1.40
2022-12-18T13:42:06.365Z,-1.40
2022-12-18T13:44:42.461Z,-1.40
2022-12-18T13:47:38.404Z,-1.40
2022-12-18T13:50:32.489Z,-1.50
2022-12-18T13:53:05.594Z,-1.50
2022-12-18T13:55:33.556Z,-1.40
2022-12-18T13:58:07.523Z,-1.50
2022-12-18T14:00:35.028Z,-1.60
2022-12-18T14:03:21.833Z,-1.60
2022-12-18T14:06:17.477Z,-1.70
2022-12-18T14:08:47.589Z,-1.70
2022-12-18T14:11:23.818Z,-1.70
2022-12-18T14:13:53.999Z,-1.70
2022-12-18T14:16:21.535Z,-1.70
2022-12-18T14:19:10.049Z,-1.80
2022-12-18T14:21:51.480Z,-1.80
2022-12-18T14:24:20.102Z,-1.80
2022-12-18T14:26:50.468Z,-1.70
2022-12-18T14:29:28.507Z,-1.80
2022-12-18T14:32:18.677Z,-1.90
2022-12-18T14:34:51.258Z,-1.90
2022-12-18T14:37:25.059Z,-1.90
2022-12-18T14:40:03.253Z,-1.80
2022-12-18T14:42:32.293Z,-1.90
2022-12-18T14:45:43.321Z,-1.90
2022-12-18T14:48:24.654Z,-1.90
2022-12-18T14:51:05.875Z,-1.90
2022-12-18T14:53:47.601Z,-1.80
2022-12-18T14:56:25.228Z,-1.80
2022-12-18T14:59:19.245Z,-1.80
2022-12-18T15:02:11.968Z,-1.90
2022-12-18T15:04:44.277Z,-1.90
2022-12-18T15:07:12.097Z,-1.90
2022-12-18T15:09:41.793Z,-1.90
2022-12-18T15:12:27.845Z,-1.90
2022-12-18T15:14:55.165Z,-1.90
2022-12-18T15:17:26.723Z,-1.90
2022-12-18T15:20:01.318Z,-1.90
2022-12-18T15:22:36.103Z,-1.90
2022-12-18T15:25:21.530Z,-1.90
2022-12-18T15:27:49.148Z,-2.00
2022-12-18T15:30:19.002Z,-2.00
2022-12-18T15:32:46.905Z,-2.00
2022-12-18T15:35:21.090Z,-2.00
2022-12-18T15:37:49.860Z,-2.00
2022-12-18T15:40:27.225Z,-2.00
2022-12-18T15:43:14.618Z,-2.00
2022-12-18T15:45:42.033Z,-2.00
2022-12-18T15:48:22.092Z,-1.90
2022-12-18T15:50:51.999Z,-2.00
2022-12-18T15:53:20.371Z,-2.00
2022-12-18T15:56:06.244Z,-2.10
2022-12-18T15:58:34.443Z,-2.00
2022-12-18T16:01:02.678Z,-2.00
2022-12-18T16:03:30.184Z,-2.10
2022-12-18T16:05:59.272Z,-2.10
2022-12-18T16:08:27.480Z,-2.10
2022-12-18T16:10:55.936Z,-2.10
2022-12-18T16:13:23.616Z,-2.10
2022-12-18T16:15:51.277Z,-2.10
2022-12-18T16:18:18.607Z,-2.20
2022-12-18T16:20:46.081Z,-2.20
2022-12-18T16:23:13.479Z,-2.10
2022-12-18T16:25:41.390Z,-2.20
2022-12-18T16:28:08.797Z,-2.10
2022-12-18T16:30:38.675Z,-2.20
2022-12-18T16:33:07.669Z,-2.20
2022-12-18T16:35:37.891Z,-2.20
2022-12-18T16:38:06.015Z,-2.20
2022-12-18T16:40:33.826Z,-2.30
2022-12-18T16:43:01.490Z,-2.30
2022-12-18T16:45:33.972Z,-2.30
2022-12-18T16:48:01.532Z,-2.30
2022-12-18T16:50:28.939Z,-2.30
2022-12-18T16:52:56.311Z,-2.30
2022-12-18T16:55:24.742Z,-2.30
2022-12-18T16:57:52.438Z,-2.30
2022-12-18T17:00:20.004Z,-2.30
2022-12-18T17:02:48.330Z,-2.30
2022-12-18T17:05:16.069Z,-2.30
2022-12-18T17:07:43.676Z,-2.30
2022-12-18T17:10:11.129Z,-2.30
2022-12-18T17:12:38.489Z,-2.40
2022-12-18T17:15:06.307Z,-2.40
2022-12-18T17:17:33.838Z,-2.40
2022-12-18T17:20:01.044Z,-2.50
2022-12-18T17:22:29.359Z,-2.50
2022-12-18T17:24:56.889Z,-2.50
2022-12-18T17:27:24.258Z,-2.50
2022-12-18T17:29:51.600Z,-2.50
2022-12-18T17:32:18.991Z,-2.50
2022-12-18T17:34:46.655Z,-2.60
2022-12-18T17:37:14.138Z,-2.60
2022-12-18T17:39:42.108Z,-2.60
2022-12-18T17:42:15.436Z,-2.60
2022-12-18T17:44:44.363Z,-2.70
2022-12-18T17:47:13.774Z,-2.60
2022-12-18T17:49:41.277Z,-2.60
2022-12-18T17:52:09.005Z,-2.70
2022-12-18T17:54:39.575Z,-2.70
2022-12-18T17:57:07.525Z,-2.70
2022-12-18T17:59:34.806Z,-2.60
2022-12-18T18:02:02.363Z,-2.70
2022-12-18T18:04:30.314Z,-2.70
2022-12-18T18:06:57.910Z,-2.60
2022-12-18T18:09:25.231Z,-2.60
2022-12-18T18:12:10.914Z,-2.70
2022-12-18T18:14:39.330Z,-2.60
2022-12-18T18:17:06.969Z,-2.60
2022-12-18T18:19:34.409Z,-2.60
2022-12-18T18:22:03.008Z,-2.50
2022-12-18T18:24:31.210Z,-2.70
2022-12-18T18:27:01.174Z,-2.60
2022-12-18T18:29:32.427Z,-2.60
2022-12-18T18:32:00.274Z,-2.60
2022-12-18T18:34:30.362Z,-2.60
2022-12-18T18:36:59.112Z,-2.60
2022-12-18T18:39:26.915Z,-2.60
2022-12-18T18:41:54.651Z,-2.60
2022-12-18T18:44:25.724Z,-2.70
2022-12-18T18:46:55.124Z,-2.60
2022-12-18T18:49:24.264Z,-2.70
2022-12-18T18:51:51.824Z,-2.70
2022-12-18T18:54:20.975Z,-2.70
2022-12-18T18:59:38.884Z,-2.70
2022-12-18T19:02:07.184Z,-2.70
2022-12-18T19:04:36.438Z,-2.70
2022-12-18T19:07:06.560Z,-2.80
2022-12-18T19:09:36.146Z,-2.80
2022-12-18T19:12:22.511Z,-2.80
2022-12-18T19:14:49.906Z,-2.80
2022-12-18T19:17:17.280Z,-2.80
2022-12-18T19:19:44.620Z,-2.70
2022-12-18T19:22:12.299Z,-2.80
2022-12-18T19:24:39.953Z,-2.80
2022-12-18T19:27:07.855Z,-2.80
2022-12-18T19:29:35.380Z,-2.80
2022-12-18T19:32:04.797Z,-2.70
2022-12-18T19:34:32.136Z,-2.80
2022-12-18T19:37:00.160Z,-2.80
2022-12-18T19:39:28.004Z,-2.90
2022-12-18T19:41:55.243Z,-2.90
2022-12-18T19:44:22.826Z,-2.90
2022-12-18T19:46:51.681Z,-2.90
2022-12-18T19:49:22.054Z,-2.90
2022-12-18T19:51:50.512Z,-2.90
2022-12-18T19:54:18.149Z,-2.90
2022-12-18T19:56:46.499Z,-2.90
2022-12-18T19:59:14.051Z,-2.90
2022-12-18T20:01:41.622Z,-2.90
2022-12-18T20:04:09.293Z,-3.00
2022-12-18T20:06:47.518Z,-3.00
2022-12-18T20:09:15.825Z,-3.00
2022-12-18T20:11:43.961Z,-3.00
2022-12-18T20:14:13.270Z,-3.00
2022-12-18T20:16:41.486Z,-3.00
2022-12-18T20:19:10.800Z,-3.00
2022-12-18T20:21:38.449Z,-3.00
2022-12-18T20:24:07.199Z,-3.00
2022-12-18T20:26:34.790Z,-3.00
2022-12-18T20:29:02.053Z,-2.90
2022-12-18T20:31:29.718Z,-2.90
2022-12-18T20:34:01.629Z,-2.90
2022-12-18T20:36:31.829Z,-2.90
2022-12-18T20:39:03.910Z,-2.90
2022-12-18T20:41:37.898Z,-2.90
2022-12-18T20:44:23.134Z,-2.90
2022-12-18T20:46:57.086Z,-2.90
2022-12-18T20:49:26.117Z,-2.90
2022-12-18T20:51:56.077Z,-2.90
2022-12-18T20:54:25.626Z,-2.90
2022-12-18T20:56:53.160Z,-2.90
2022-12-18T20:59:20.831Z,-3.00
2022-12-18T21:01:49.511Z,-2.90
2022-12-18T21:04:21.123Z,-2.90
2022-12-18T21:06:55.600Z,-2.90
2022-12-18T21:09:25.367Z,-2.90
2022-12-18T21:12:13.951Z,-2.70
2022-12-18T21:14:42.910Z,-2.90
2022-12-18T21:17:11.406Z,-3.00
2022-12-18T21:19:39.188Z,-3.00
2022-12-18T21:22:06.767Z,-3.00
2022-12-18T21:24:34.259Z,-3.00
2022-12-18T21:27:02.023Z,-3.00
2022-12-18T21:29:29.371Z,-3.00
2022-12-18T21:31:57.054Z,-2.90
2022-12-18T21:34:27.283Z,-2.90
2022-12-18T21:36:56.139Z,-2.90
2022-12-18T21:39:24.459Z,-2.90
2022-12-18T21:42:11.058Z,-2.80
2022-12-18T21:44:42.011Z,-2.90
2022-12-18T21:47:22.290Z,-2.90
2022-12-18T21:49:52.609Z,-2.90
2022-12-18T21:52:26.254Z,-2.90
2022-12-18T21:55:09.131Z,-2.80
2022-12-18T21:57:39.157Z,-2.90
2022-12-18T22:00:11.179Z,-2.80
2022-12-18T22:02:46.701Z,-2.90
2022-12-18T22:05:14.248Z,-2.90
2022-12-18T22:07:41.699Z,-2.90
2022-12-18T22:10:09.285Z,-3.00
2022-12-18T22:12:43.125Z,-2.90
2022-12-18T22:15:19.995Z,-2.90
2022-12-18T22:17:59.901Z,-2.80
2022-12-18T22:20:29.733Z,-2.90
2022-12-18T22:22:58.331Z,-2.90
2022-12-18T22:25:25.706Z,-2.90
2022-12-18T22:28:11.623Z,-2.90
2022-12-18T22:30:39.309Z,-2.90
2022-12-18T22:33:07.000Z,-3.00
2022-12-18T22:35:34.871Z,-3.00
2022-12-18T22:38:02.293Z,-3.00
2022-12-18T22:40:29.904Z,-3.00
2022-12-18T22:42:57.517Z,-3.00
2022-12-18T22:45:26.302Z,-3.00
2022-12-18T22:47:53.912Z,-3.00
2022-12-18T22:50:21.367Z,-3.00
2022-12-18T22:52:48.774Z,-3.00
2022-12-18T22:55:16.689Z,-3.00
2022-12-18T22:57:48.611Z,-3.00
2022-12-18T23:00:17.899Z,-3.00
2022-12-18T23:02:59.259Z,-3.10
2022-12-18T23:05:29.143Z,-3.00
2022-12-18T23:07:56.503Z,-3.00
2022-12-18T23:10:23.906Z,-3.00
2022-12-18T23:12:51.196Z,-2.90
2022-12-18T23:15:18.889Z,-2.90
2022-12-18T23:17:50.112Z,-2.90
2022-12-18T23:20:17.328Z,-2.90
2022-12-18T23:22:44.819Z,-2.90
2022-12-18T23:25:12.135Z,-2.90
2022-12-18T23:27:39.347Z,-2.80
2022-12-18T23:30:07.710Z,-2.80
2022-12-18T23:32:38.285Z,-2.80
2022-12-18T23:35:06.166Z,-2.80
2022-12-18T23:37:58.460Z,-2.80
2022-12-18T23:40:22.487Z,-2.80
2022-12-18T23:42:49.735Z,-2.80
2022-12-18T23:45:18.089Z,-2.80
2022-12-18T23:47:45.742Z,-2.80
2022-12-18T23:50:17.928Z,-2.60
2022-12-18T23:52:45.407Z,-2.80
2022-12-18T23:55:12.829Z,-2.80
2022-12-18T23:57:40.443Z,-2.80
